Arroyo, Texas
Current Conditions -  °F | °C
As of 8:20 AM on Monday 22 Dec 2014 (Local Time) from KHRL Reporting Station
Haze Haze  
Wind Chill: 63°   Ceiling: 200
Heat Index: 63°   Visibility: 1.2mi
Dew Point: 61°   Wind: 10mph
Humidity: 94%   Direction: 190°S
Pressure: 29.8"   Gusts: NA
Location:  26.2089°N, 97.6849°W
Report Text: KHRL 221420Z 19009KT 1 1/4SM BR OVC002 17/16 A2980 RMK AO2
Loading
Personal Weather Stations






























Interactive Weather Map New forecast layout! Learn more

10-Day Weather Forecast

Advertisements
Track Severe Weather on mobile